Thunder radar more information blitzortung!


Radar de pluja more information rain snow radar


Visita la nostra xarxa de llocs de meteo:

Template documentation
and downloads

And another site



No particular awareness of the weather is required.    There are no Weather-warnings

Pagina Historial Weather Underground text

Diari Resum May 7, 2016 Unitats:  Mètric    Imperial   Tant
« Previous Dia
SegĂźent Dia »
Diari Setmana Mensual Anual Personalitzada
  Maxima: Minima: Media:
Temperatura: 18.5 °C 11.7 °C 15.1 °C
Punt de rosada: 10.8 °C 7.5 °C 9.6 °C
Humitat: 80 % 58 % 70 %
Wind Speed: 14.8 km/h 0.0 km/h 5.5 km/h
RĂ fegues de vent: 14.8 km/h - -
Vent:- - ENE
Pression baro: 1012.8 hPa 1008.0 hPa -
Precipitacions: 2.0 mm    
Historical Graphs
 
 
Dades de taula per May 7, 2016
Temps Temperatura Punt de rosada Pression baro Vent Wind Speed RĂ fegues de vent Humitat Rainfall Rate (Hourly)
00:00 14.3 °C 10.1 °C 1012.8 hPa NE 5.6 km/h 5.8 km/h 76 % 0.0 mm
00:05 14.3 °C 10.1 °C 1012.8 hPa NNE 3.7 km/h 5.0 km/h 76 % 0.0 mm
00:10 13.9 °C 9.7 °C 1010.7 hPa NNE 4.8 km/h 4.8 km/h 76 % 0.0 mm
00:20 13.9 °C 9.6 °C 1010.7 hPa NE 4.8 km/h 6.4 km/h 75 % 0.0 mm
00:30 13.9 °C 9.6 °C 1010.7 hPa NE 4.8 km/h 6.4 km/h 75 % 0.0 mm
00:40 13.8 °C 9.4 °C 1010.7 hPa NE 3.2 km/h 6.4 km/h 75 % 0.0 mm
00:50 13.8 °C 9.4 °C 1010.7 hPa NNE 3.2 km/h 4.8 km/h 75 % 0.0 mm
01:00 13.7 °C 9.3 °C 1010.0 hPa NNE 3.2 km/h 6.4 km/h 75 % 0.0 mm
01:10 13.7 °C 9.3 °C 1010.0 hPa NNE 3.2 km/h 6.4 km/h 75 % 0.0 mm
01:20 13.7 °C 9.2 °C 1010.0 hPa NE 4.8 km/h 8.0 km/h 74 % 0.0 mm
01:30 13.7 °C 8.9 °C 1010.0 hPa NE 3.2 km/h 4.8 km/h 73 % 0.0 mm
01:40 13.7 °C 8.9 °C 1009.0 hPa ENE 1.6 km/h 3.2 km/h 73 % 0.0 mm
01:50 13.7 °C 8.7 °C 1009.0 hPa Calm   1.6 km/h 72 % 0.0 mm
02:00 13.6 °C 8.7 °C 1010.0 hPa Calm     72 % 0.0 mm
02:10 13.6 °C 8.4 °C 1010.0 hPa NNE 3.2 km/h 4.8 km/h 71 % 0.0 mm
02:20 13.6 °C 8.7 °C 1010.0 hPa NE 3.2 km/h 4.8 km/h 72 % 0.0 mm
02:30 13.7 °C 8.7 °C 1010.0 hPa NE 1.6 km/h 3.2 km/h 72 % 0.0 mm
02:40 13.7 °C 8.7 °C 1010.0 hPa NE 1.6 km/h 4.8 km/h 72 % 0.0 mm
02:50 13.7 °C 8.9 °C 1010.0 hPa NE 1.6 km/h 3.2 km/h 73 % 0.0 mm
03:00 13.8 °C 9.1 °C 1010.0 hPa NE 3.2 km/h 3.2 km/h 73 % 0.0 mm
03:10 13.9 °C 9.1 °C 1010.0 hPa NE 1.6 km/h 4.8 km/h 73 % 0.0 mm
03:20 13.9 °C 9.1 °C 1010.0 hPa ENE 1.6 km/h 4.8 km/h 73 % 0.0 mm
03:30 13.9 °C 9.1 °C 1010.0 hPa ENE 3.2 km/h 4.8 km/h 73 % 0.0 mm
03:40 14.2 °C 8.6 °C 1010.0 hPa ENE 3.2 km/h 6.4 km/h 69 % 0.0 mm
03:50 14.3 °C 8.4 °C 1010.0 hPa ENE 3.2 km/h 6.4 km/h 68 % 0.0 mm
04:00 14.3 °C 8.7 °C 1010.7 hPa East 9.7 km/h 9.7 km/h 69 % 0.0 mm
04:10 14.2 °C 8.6 °C 1010.7 hPa East 8.0 km/h 12.9 km/h 69 % 0.0 mm
04:20 14.0 °C 8.4 °C 1010.7 hPa ESE 8.0 km/h 11.3 km/h 69 % 0.0 mm
04:30 14.0 °C 8.4 °C 1010.7 hPa East 8.0 km/h 8.0 km/h 69 % 0.0 mm
04:40 14.0 °C 7.7 °C 1010.7 hPa ENE 8.0 km/h 9.7 km/h 66 % 0.0 mm
04:50 13.9 °C 7.7 °C 1010.7 hPa NE 9.7 km/h 14.5 km/h 66 % 0.0 mm
05:00 13.9 °C 7.7 °C 1010.7 hPa NE 8.0 km/h 8.0 km/h 66 % 0.0 mm
05:10 13.7 °C 7.7 °C 1011.7 hPa ENE 4.8 km/h 8.0 km/h 67 % 0.0 mm
05:20 13.4 °C 7.6 °C 1011.7 hPa NE 8.0 km/h 11.3 km/h 68 % 0.0 mm
05:30 13.3 °C 7.5 °C 1011.7 hPa NE 4.8 km/h 9.7 km/h 68 % 0.0 mm
05:40 13.2 °C 7.8 °C 1011.7 hPa NE 4.8 km/h 9.7 km/h 70 % 0.0 mm
05:50 13.0 °C 8.1 °C 1011.7 hPa NE 4.8 km/h 4.8 km/h 72 % 0.0 mm
06:00 12.9 °C 8.2 °C 1010.7 hPa NE 3.2 km/h 6.4 km/h 73 % 0.0 mm
06:10 12.9 °C 8.4 °C 1011.7 hPa NE 3.2 km/h 6.4 km/h 74 % 0.0 mm
06:20 13.0 °C 8.7 °C 1011.7 hPa NE 1.6 km/h 4.8 km/h 75 % 0.0 mm
06:30 13.1 °C 8.8 °C 1011.7 hPa ENE 3.2 km/h 4.8 km/h 75 % 0.0 mm
06:40 13.2 °C 9.1 °C 1011.7 hPa East 1.6 km/h 4.8 km/h 76 % 0.0 mm
11:40 13.2 °C 9.1 °C 1011.7 hPa ESE 1.9 km/h 3.2 km/h 76 % 0.0 mm
11:45 13.3 °C 9.2 °C 1011.7 hPa East 3.7 km/h 3.9 km/h 76 % 0.0 mm
11:50 13.4 °C 9.3 °C 1011.7 hPa ESE 3.7 km/h 3.7 km/h 76 % 0.0 mm
11:55 13.4 °C 9.3 °C 1011.7 hPa ESE 3.7 km/h   76 % 0.0 mm
12:00 13.5 °C 9.3 °C 1011.7 hPa East 3.7 km/h 3.7 km/h 76 % 0.0 mm
12:05 13.5 °C 9.3 °C 1011.7 hPa East 3.7 km/h 3.7 km/h 76 % 0.0 mm
12:11 13.6 °C 9.4 °C 1011.7 hPa ESE 3.7 km/h 3.9 km/h 76 % 0.0 mm
12:16 13.6 °C 9.7 °C 1011.7 hPa East 3.7 km/h 3.7 km/h 77 % 0.0 mm
12:20 18.1 °C 10.4 °C 1009.0 hPa NNE 3.2 km/h 3.2 km/h 61 % 1.0 mm
12:21 13.7 °C 9.7 °C 1011.7 hPa ESE 5.0 km/h 5.0 km/h 77 % 0.0 mm
12:26 13.7 °C 9.7 °C 1011.7 hPa ESE 3.7 km/h 3.9 km/h 77 % 0.0 mm
12:31 13.8 °C 10.1 °C 1011.7 hPa ENE 3.7 km/h 3.7 km/h 78 % 0.0 mm
12:36 13.9 °C 9.9 °C 1011.7 hPa ESE 5.6 km/h 5.6 km/h 77 % 0.0 mm
12:41 14.0 °C 10.1 °C 1011.7 hPa East 3.7 km/h 3.7 km/h 77 % 0.0 mm
12:46 14.1 °C 10.1 °C 1011.7 hPa NE 5.6 km/h 5.6 km/h 77 % 1.0 mm
12:56 14.6 °C 10.4 °C 1011.7 hPa WSW 3.7 km/h 3.7 km/h 76 % 1.0 mm
13:06 14.7 °C 10.5 °C 1011.7 hPa NNE 7.4 km/h 7.4 km/h 76 % 1.0 mm
13:11 14.7 °C 10.5 °C 1010.7 hPa NNE 7.6 km/h 7.6 km/h 76 % 1.0 mm
13:16 14.8 °C 10.6 °C 1010.7 hPa NE 3.7 km/h 3.9 km/h 76 % 1.0 mm
13:21 15.0 °C 10.6 °C 1010.7 hPa ENE 9.3 km/h 9.3 km/h 75 % 1.0 mm
13:26 15.1 °C 10.5 °C 1010.7 hPa NE 5.6 km/h 5.6 km/h 74 % 1.0 mm
13:31 15.2 °C 10.4 °C 1010.7 hPa ENE 7.4 km/h 7.4 km/h 73 % 1.0 mm
13:36 15.5 °C 10.7 °C 1010.7 hPa ENE 5.6 km/h 5.6 km/h 73 % 1.0 mm
13:41 15.5 °C 10.4 °C 1010.7 hPa NNE 7.4 km/h 7.4 km/h 72 % 1.0 mm
13:46 15.6 °C 10.6 °C 1010.7 hPa NE 7.6 km/h 7.6 km/h 72 % 0.0 mm
13:51 15.7 °C 10.4 °C 1010.7 hPa ENE 7.4 km/h 7.4 km/h 71 % 0.0 mm
13:56 15.8 °C 10.6 °C 1010.0 hPa NNE 11.1 km/h 11.1 km/h 71 % 0.0 mm
14:01 15.9 °C 10.7 °C 1010.0 hPa ENE 9.3 km/h 9.3 km/h 71 % 0.0 mm
14:06 16.1 °C 10.8 °C 1010.0 hPa NE 7.4 km/h 7.4 km/h 71 % 0.0 mm
14:11 16.2 °C 10.5 °C 1010.0 hPa NNE 13.0 km/h 13.0 km/h 69 % 0.0 mm
14:16 16.3 °C 10.8 °C 1010.0 hPa NNE 7.4 km/h 7.4 km/h 70 % 0.0 mm
14:21 16.4 °C 10.7 °C 1010.0 hPa WNW 5.6 km/h 5.6 km/h 69 % 0.0 mm
14:26 16.4 °C 10.7 °C 1009.0 hPa NE 10.8 km/h 10.8 km/h 69 % 0.0 mm
14:31 16.3 °C 10.4 °C 1009.0 hPa ENE 11.1 km/h 11.1 km/h 68 % 0.0 mm
14:36 16.5 °C 10.6 °C 1009.0 hPa NE 9.3 km/h 9.3 km/h 68 % 0.0 mm
14:41 16.5 °C 10.6 °C 1010.0 hPa ESE 9.3 km/h 9.3 km/h 68 % 0.0 mm
14:51 16.4 °C 9.6 °C 1010.0 hPa NNE 13.0 km/h 13.0 km/h 64 % 0.0 mm
15:01 16.4 °C 9.3 °C 1010.0 hPa ENE 9.3 km/h 9.3 km/h 63 % 0.0 mm
15:06 16.5 °C 9.4 °C 1010.0 hPa NNE 13.0 km/h 13.0 km/h 63 % 0.0 mm
15:11 16.4 °C 9.3 °C 1009.0 hPa NNE 11.1 km/h 11.1 km/h 63 % 0.0 mm
15:16 16.6 °C 9.5 °C 1009.0 hPa NNE 13.0 km/h 13.0 km/h 63 % 0.0 mm
15:21 16.8 °C 9.2 °C 1009.0 hPa NNE 9.3 km/h 9.3 km/h 61 % 0.0 mm
15:26 16.9 °C 9.3 °C 1009.0 hPa ENE 14.8 km/h 14.8 km/h 61 % 0.0 mm
15:36 17.0 °C 9.2 °C 1009.0 hPa ENE 5.6 km/h 5.6 km/h 60 % 0.0 mm
15:41 17.3 °C 9.4 °C 1010.0 hPa ENE 3.9 km/h 3.9 km/h 60 % 0.0 mm
15:46 17.3 °C 9.4 °C 1010.0 hPa ENE 9.5 km/h 9.5 km/h 60 % 0.0 mm
15:51 17.2 °C 9.6 °C 1010.0 hPa NE 7.4 km/h 7.4 km/h 61 % 0.0 mm
15:56 17.4 °C 10.1 °C 1010.0 hPa North 3.7 km/h 3.9 km/h 62 % 0.0 mm
16:01 17.6 °C 10.2 °C 1010.0 hPa North 3.7 km/h 3.7 km/h 62 % 0.0 mm
16:06 17.8 °C 10.4 °C 1010.0 hPa NNE 4.2 km/h 4.2 km/h 62 % 0.0 mm
16:11 17.8 °C 10.4 °C 1010.0 hPa NNE 7.6 km/h 7.6 km/h 62 % 0.0 mm
16:16 17.7 °C 10.3 °C 1010.0 hPa NE 7.4 km/h 7.4 km/h 62 % 0.0 mm
16:21 17.6 °C 10.2 °C 1010.0 hPa NNE 6.9 km/h 6.9 km/h 62 % 0.0 mm
16:26 17.6 °C 10.2 °C 1010.0 hPa NNE 3.7 km/h 3.7 km/h 62 % 0.0 mm
16:31 17.6 °C 10.2 °C 1010.0 hPa ENE 7.4 km/h 7.4 km/h 62 % 0.0 mm
16:36 17.6 °C 10.2 °C 1010.0 hPa NE 7.4 km/h 7.4 km/h 62 % 0.0 mm
16:41 17.6 °C 10.2 °C 1010.0 hPa NNE 3.7 km/h 3.7 km/h 62 % 0.0 mm
16:46 17.6 °C 10.0 °C 1010.0 hPa ENE 5.6 km/h 5.8 km/h 61 % 0.0 mm
16:51 17.6 °C 10.0 °C 1010.0 hPa WNW 3.9 km/h 3.9 km/h 61 % 0.0 mm
16:56 17.7 °C 10.1 °C 1010.0 hPa NNE 5.6 km/h 5.6 km/h 61 % 0.0 mm
17:01 17.9 °C 10.3 °C 1010.0 hPa NNE 3.7 km/h 3.7 km/h 61 % 0.0 mm
17:06 18.0 °C 10.4 °C 1010.0 hPa North 3.9 km/h 3.9 km/h 61 % 0.0 mm
17:11 18.0 °C 10.4 °C 1009.0 hPa ENE 7.9 km/h 7.9 km/h 61 % 0.0 mm
17:16 18.1 °C 10.4 °C 1009.0 hPa NW 7.4 km/h 7.4 km/h 61 % 0.0 mm
17:22 18.1 °C 10.4 °C 1009.0 hPa ENE 1.9 km/h 3.5 km/h 61 % 1.0 mm
17:27 18.2 °C 10.3 °C 1009.0 hPa East 3.9 km/h 3.9 km/h 60 % 1.0 mm
17:32 18.1 °C 10.2 °C 1009.0 hPa ENE 5.6 km/h 5.6 km/h 60 % 1.0 mm
17:37 18.3 °C 10.4 °C 1009.0 hPa ESE 3.7 km/h   60 % 1.0 mm
17:42 18.4 °C 10.5 °C 1009.0 hPa NNE 3.7 km/h 3.7 km/h 60 % 1.0 mm
17:47 18.5 °C 10.6 °C 1009.0 hPa NE 3.9 km/h 3.9 km/h 60 % 1.0 mm
17:52 18.3 °C 10.2 °C 1009.0 hPa ENE 5.6 km/h 5.6 km/h 59 % 1.0 mm
17:57 18.4 °C 10.2 °C 1009.0 hPa NNE 5.6 km/h 5.6 km/h 59 % 1.0 mm
18:02 18.4 °C 10.2 °C 1009.0 hPa NE 3.9 km/h 3.9 km/h 59 % 1.0 mm
18:07 18.3 °C 10.2 °C 1009.0 hPa ENE 3.7 km/h 3.9 km/h 59 % 1.0 mm
18:12 18.4 °C 10.0 °C 1009.0 hPa NE 3.7 km/h 3.7 km/h 58 % 1.0 mm
18:17 18.4 °C 10.0 °C 1009.0 hPa ENE 6.4 km/h 6.4 km/h 58 % 1.0 mm
18:22 18.4 °C 10.0 °C 1009.0 hPa ESE 7.4 km/h 7.4 km/h 58 % 0.0 mm
18:27 18.4 °C 10.0 °C 1009.0 hPa ESE 7.9 km/h 7.9 km/h 58 % 0.0 mm
18:32 18.2 °C 10.1 °C 1009.0 hPa ESE 13.0 km/h 13.0 km/h 59 % 0.0 mm
18:37 18.0 °C 9.9 °C 1009.0 hPa ESE 14.8 km/h 14.8 km/h 59 % 0.0 mm
18:42 17.8 °C 9.7 °C 1009.0 hPa ESE 12.6 km/h 12.6 km/h 59 % 0.0 mm
18:47 17.7 °C 9.6 °C 1009.0 hPa East 14.8 km/h 14.8 km/h 59 % 0.0 mm
18:52 17.5 °C 9.4 °C 1009.0 hPa East 10.3 km/h 10.3 km/h 59 % 0.0 mm
18:57 17.3 °C 9.2 °C 1009.0 hPa ENE 9.3 km/h 9.3 km/h 59 % 0.0 mm
19:02 17.3 °C 9.4 °C 1009.0 hPa ESE 9.3 km/h 9.3 km/h 60 % 0.0 mm
19:07 17.0 °C 9.4 °C 1009.0 hPa ENE 13.0 km/h 13.0 km/h 61 % 0.0 mm
19:10 13.8 °C 9.1 °C 1010.0 hPa ENE 1.6 km/h 1.6 km/h 73 % 0.0 mm
19:12 17.0 °C 9.4 °C 1009.0 hPa ESE 9.3 km/h 9.3 km/h 61 % 0.0 mm
19:17 16.9 °C 9.8 °C 1009.0 hPa ESE 9.3 km/h 9.3 km/h 63 % 0.0 mm
19:20 13.6 °C 9.1 °C 1010.0 hPa ENE 1.6 km/h 3.2 km/h 74 % 0.0 mm
19:22 16.8 °C 9.7 °C 1009.0 hPa ENE 9.3 km/h 9.3 km/h 63 % 0.0 mm
19:27 16.8 °C 9.9 °C 1008.0 hPa ESE 11.9 km/h 11.9 km/h 64 % 0.0 mm
19:30 13.4 °C 9.3 °C 1010.0 hPa Calm   3.2 km/h 76 % 0.0 mm
19:32 16.5 °C 10.1 °C 1008.0 hPa ENE 11.1 km/h 11.1 km/h 66 % 0.0 mm
19:37 16.3 °C 10.2 °C 1008.0 hPa ESE 13.0 km/h 13.0 km/h 67 % 0.0 mm
19:42 16.2 °C 10.3 °C 1008.0 hPa NNE 13.0 km/h 13.0 km/h 68 % 0.0 mm
19:47 16.2 °C 10.3 °C 1008.0 hPa ESE 9.3 km/h 9.3 km/h 68 % 0.0 mm
19:50 13.1 °C 9.2 °C 1010.0 hPa Calm     77 % 0.0 mm
19:57 16.1 °C 10.4 °C 1008.0 hPa ENE 9.3 km/h 9.3 km/h 69 % 0.0 mm
20:00 13.0 °C 9.3 °C 1009.0 hPa Calm     78 % 0.0 mm
20:02 16.0 °C 10.6 °C 1008.0 hPa ENE 13.0 km/h 13.0 km/h 70 % 0.0 mm
20:07 15.9 °C 10.7 °C 1008.0 hPa ENE 9.3 km/h 9.3 km/h 71 % 0.0 mm
20:10 12.8 °C 9.1 °C 1010.0 hPa Calm     78 % 0.0 mm
20:12 15.8 °C 10.8 °C 1008.0 hPa ENE 7.4 km/h 7.4 km/h 72 % 0.0 mm
20:17 15.6 °C 10.6 °C 1008.0 hPa NE 9.3 km/h 9.3 km/h 72 % 0.0 mm
20:20 12.8 °C 9.2 °C 1010.0 hPa Calm   1.6 km/h 79 % 0.0 mm
20:22 15.5 °C 10.4 °C 1008.0 hPa ENE 7.4 km/h 7.4 km/h 72 % 0.0 mm
20:27 15.5 °C 10.7 °C 1008.0 hPa ENE 9.3 km/h 9.3 km/h 73 % 0.0 mm
20:30 12.7 °C 9.2 °C 1010.0 hPa Calm   1.6 km/h 79 % 0.0 mm
20:32 15.5 °C 10.4 °C 1008.0 hPa ESE 9.5 km/h 9.5 km/h 72 % 0.0 mm
20:42 15.3 °C 10.3 °C 1009.0 hPa ENE 9.3 km/h 9.3 km/h 72 % 0.0 mm
20:45 12.8 °C 9.2 °C 1010.0 hPa Calm   3.2 km/h 79 % 0.0 mm
20:47 15.3 °C 10.3 °C 1009.0 hPa East 11.1 km/h 11.1 km/h 72 % 0.0 mm
20:52 15.3 °C 10.3 °C 1009.0 hPa ESE 5.6 km/h 5.6 km/h 72 % 0.0 mm
20:55 12.7 °C 9.2 °C 1010.0 hPa Calm   3.2 km/h 79 % 0.0 mm
20:57 15.3 °C 10.1 °C 1009.0 hPa ESE 8.7 km/h 8.7 km/h 71 % 0.0 mm
21:02 15.2 °C 10.0 °C 1009.0 hPa ENE 7.4 km/h 7.4 km/h 71 % 0.0 mm
21:05 12.5 °C 8.9 °C 1010.0 hPa Calm     79 % 0.0 mm
21:07 15.2 °C 10.0 °C 1009.0 hPa ESE 11.1 km/h 11.1 km/h 71 % 0.0 mm
21:12 15.2 °C 10.0 °C 1009.0 hPa ESE 7.4 km/h 7.4 km/h 71 % 0.0 mm
21:15 12.4 °C 8.8 °C 1010.0 hPa Calm     79 % 0.0 mm
21:17 15.2 °C 10.0 °C 1009.0 hPa ESE 8.7 km/h 8.7 km/h 71 % 0.0 mm
21:22 15.2 °C 9.8 °C 1009.0 hPa ESE 11.1 km/h 11.1 km/h 70 % 0.0 mm
21:25 12.2 °C 8.8 °C 1010.0 hPa Calm     80 % 0.0 mm
21:27 15.2 °C 9.8 °C 1010.0 hPa East 3.7 km/h 3.7 km/h 70 % 0.0 mm
21:32 15.2 °C 10.0 °C 1010.0 hPa ESE 5.0 km/h   71 % 0.0 mm
21:35 12.1 °C 8.8 °C 1010.0 hPa Calm   1.6 km/h 80 % 0.0 mm
21:37 15.2 °C 10.0 °C 1010.0 hPa East 5.6 km/h 5.6 km/h 71 % 0.0 mm
21:42 15.2 °C 10.0 °C 1010.0 hPa ESE 3.7 km/h 3.7 km/h 71 % 0.0 mm
21:45 12.0 °C 8.7 °C 1010.0 hPa Calm   1.6 km/h 80 % 0.0 mm
21:47 15.2 °C 9.8 °C 1010.0 hPa ESE 7.4 km/h 7.4 km/h 70 % 0.0 mm
21:52 15.2 °C 9.8 °C 1010.0 hPa ESE 5.6 km/h 5.6 km/h 70 % 0.0 mm
21:55 12.1 °C 8.8 °C 1010.0 hPa Calm   1.6 km/h 80 % 0.0 mm
21:57 15.2 °C 9.8 °C 1010.0 hPa ENE 3.7 km/h 3.7 km/h 70 % 0.0 mm
22:02 15.1 °C 9.9 °C 1010.0 hPa ENE 4.7 km/h 4.7 km/h 71 % 0.0 mm
22:05 12.2 °C 8.7 °C 1010.0 hPa ENE 3.2 km/h 4.8 km/h 79 % 0.0 mm
22:07 15.1 °C 9.9 °C 1010.0 hPa ENE 4.2 km/h 4.2 km/h 71 % 0.0 mm
22:12 15.1 °C 9.9 °C 1010.0 hPa ENE 3.7 km/h 3.7 km/h 71 % 0.0 mm
22:17 15.0 °C 9.8 °C 1010.0 hPa ENE 2.6 km/h 2.6 km/h 71 % 0.0 mm
22:22 15.0 °C 9.8 °C 1010.0 hPa ENE 3.7 km/h 3.7 km/h 71 % 0.0 mm
22:25 12.0 °C 8.4 °C 1010.0 hPa Calm   1.6 km/h 79 % 0.0 mm
22:27 15.0 °C 9.8 °C 1009.0 hPa NE 3.7 km/h 3.7 km/h 71 % 0.0 mm
22:32 15.0 °C 9.8 °C 1009.0 hPa ENE 2.3 km/h 2.3 km/h 71 % 0.0 mm
22:35 11.9 °C 8.4 °C 1010.0 hPa SSW 1.6 km/h 3.2 km/h 79 % 0.0 mm
22:37 15.0 °C 9.8 °C 1009.0 hPa NE 3.7 km/h 3.7 km/h 71 % 0.0 mm
22:42 15.0 °C 9.8 °C 1009.0 hPa ENE 2.3 km/h 2.3 km/h 71 % 0.0 mm
22:45 11.8 °C 8.3 °C 1009.0 hPa SSW 1.6 km/h 1.6 km/h 79 % 0.0 mm
22:47 14.9 °C 9.7 °C 1009.0 hPa ENE 1.9 km/h   71 % 0.0 mm
22:52 14.9 °C 9.7 °C 1009.0 hPa SSE 1.9 km/h 1.9 km/h 71 % 0.0 mm
22:55 11.7 °C 8.2 °C 1009.0 hPa Calm   1.6 km/h 79 % 0.0 mm
22:57 14.8 °C 9.8 °C 1010.0 hPa ENE 3.2 km/h 3.2 km/h 72 % 0.0 mm
23:02 14.8 °C 9.6 °C 1010.0 hPa ESE 3.7 km/h 3.7 km/h 71 % 0.0 mm
23:05 11.8 °C 8.3 °C 1009.0 hPa Calm   3.2 km/h 79 % 0.0 mm
23:07 14.8 °C 9.8 °C 1010.0 hPa ENE 3.7 km/h 3.7 km/h 72 % 0.0 mm
23:12 14.7 °C 9.7 °C 1010.0 hPa East 4.2 km/h 4.2 km/h 72 % 0.0 mm
23:15 11.8 °C 8.3 °C 1009.0 hPa WSW 1.6 km/h 3.2 km/h 79 % 0.0 mm
23:17 14.6 °C 9.6 °C 1010.0 hPa ENE 3.7 km/h 3.7 km/h 72 % 0.0 mm
23:22 14.6 °C 9.4 °C 1010.0 hPa East 3.7 km/h 3.7 km/h 71 % 0.0 mm
23:25 11.8 °C 8.4 °C 1009.0 hPa WSW 1.6 km/h 1.6 km/h 80 % 0.0 mm
23:27 14.5 °C 9.3 °C 1010.0 hPa ENE 3.7 km/h 3.7 km/h 71 % 0.0 mm
23:32 14.5 °C 9.3 °C 1010.0 hPa East 4.7 km/h 4.7 km/h 71 % 0.0 mm
23:35 11.9 °C 8.4 °C 1009.0 hPa WSW 1.6 km/h 1.6 km/h 79 % 0.0 mm
23:37 14.4 °C 9.2 °C 1010.0 hPa ESE 7.4 km/h 7.4 km/h 71 % 0.0 mm
23:42 14.4 °C 9.2 °C 1009.0 hPa ENE 7.4 km/h 7.4 km/h 71 % 0.0 mm
23:45 11.9 °C 8.4 °C 1009.0 hPa WSW 1.6 km/h 3.2 km/h 79 % 0.0 mm
23:47 14.3 °C 9.1 °C 1009.0 hPa ENE 5.6 km/h 5.6 km/h 71 % 0.0 mm
23:52 14.2 °C 9.2 °C 1009.0 hPa ENE 3.7 km/h 4.7 km/h 72 % 0.0 mm
23:55 12.0 °C 8.4 °C 1008.0 hPa WSW 1.6 km/h 1.6 km/h 79 % 0.0 mm
23:57 14.1 °C 9.1 °C 1010.0 hPa ENE 3.7 km/h 3.7 km/h 72 % 0.0 mm
Meteo Sesrovires
Elogis d' Weather Underground - 3.5 mb

Guio original per  Jim McMurry - jmcmurry@mwt.net Adaptat per a la plantilla per  Wim van der Kuil - Leuven-Template.eu

Trobareu la nostra informacio del temps tambe a:

Weather Underground

AWEKAS